Terminal Aerodrome Forecast
Issued by NWS Dallas/Fort Worth, TX

Home | Current Version | Previous Version | Text Only | Print | Product List | Glossary On
Versions: 1 2 3 4 5 6 7 8 9 10 11 12 13 14 15 16 17 18 19 20 21 22 23 24 25 26 27 28
000
FTUS44 KFWD 032056 AAB
TAFDFW
TAF AMD
KDFW 032056Z 0321/0424 22012KT P6SM FEW050 BKN120
     FM032300 21011KT P6SM VCTS BKN050CB BKN150
      TEMPO 0323/0401 VRB20G30KT 5SM -TSRA BKN035CB
     FM040200 19010KT P6SM BKN150
     FM041500 20008KT P6SM SCT030 BKN250
     FM042100 17011KT P6SM SCT050=

USA.gov is the U.S. government's official web portal to all federal, state and local government web resources and services.